Inicio METAR Ruta Wind Satelite

Informe Meteorológico

Fecha: 2021/09/21 16:36:02 Local
2021.09.21 21:36 UTC


Operación:
SKBU 212100Z 23006KT 9999 BKN040TCU 27/25 Q1008 RMK A2977 =